Time;durP1;ratioP1;P1;durP2;ratioP2;P2;SDS_P1;SDS_P2;PMS_P1;PMS_P2;Temp;Humidity;BMP_temperature;BMP_pressure;BME280_temperature;BME280_humidity;BME280_pressure;Samples;Min_cycle;Max_cycle;Signal;HPM_P1;HPM_P2
2022/04/23 02:37:08;;;;;;;30.90;28.03;;;9.30;99.90;;;;;;6208486;22;20491;-72
2022/04/23 02:39:35;;;;;;;29.23;26.83;;;9.20;99.90;;;;;;6212707;23;20766;-75
2022/04/23 02:42:01;;;;;;;32.13;28.90;;;9.20;99.90;;;;;;6213203;23;20441;-75
2022/04/23 02:44:29;;;;;;;30.10;27.67;;;9.20;99.90;;;;;;6212942;23;20512;-76
2022/04/23 02:46:55;;;;;;;30.50;28.03;;;9.20;99.90;;;;;;6212964;23;20440;-74
2022/04/23 02:49:22;;;;;;;31.00;28.13;;;9.10;99.90;;;;;;6212825;23;20413;-75
2022/04/23 02:51:51;;;;;;;32.53;29.87;;;9.10;99.90;;;;;;6212974;23;20433;-75
2022/04/23 02:54:19;;;;;;;32.97;30.07;;;9.00;99.90;;;;;;6213195;23;20447;-74
2022/04/23 02:56:46;;;;;;;32.33;29.60;;;9.00;99.90;;;;;;6213146;23;20464;-75
2022/04/23 02:59:13;;;;;;;32.80;29.90;;;8.90;99.90;;;;;;6212906;23;20439;-75
2022/04/23 03:01:39;;;;;;;31.20;28.63;;;8.80;99.90;;;;;;6212646;23;20614;-75
2022/04/23 03:04:08;;;;;;;32.07;29.37;;;8.70;99.90;;;;;;6212731;23;20405;-75
2022/04/23 03:06:35;;;;;;;32.70;30.07;;;8.60;99.90;;;;;;6212683;23;20413;-76
2022/04/23 03:09:03;;;;;;;33.67;30.83;;;8.40;99.90;;;;;;6213092;23;20420;-77
2022/04/23 03:11:31;;;;;;;34.17;30.97;;;8.50;99.90;;;;;;6213282;23;20405;-76
2022/04/23 03:13:58;;;;;;;33.43;30.57;;;8.40;99.90;;;;;;6212991;23;20409;-76
2022/04/23 03:16:26;;;;;;;35.70;32.60;;;8.40;99.90;;;;;;6213220;23;20397;-76
2022/04/23 03:18:53;;;;;;;35.20;32.20;;;8.40;99.90;;;;;;6212905;23;20437;-76
2022/04/23 03:21:20;;;;;;;34.43;31.37;;;8.40;99.90;;;;;;6212337;23;20415;-75
2022/04/23 03:23:46;;;;;;;37.07;33.87;;;8.30;99.90;;;;;;6212992;23;20401;-74
2022/04/23 03:26:13;;;;;;;34.90;32.00;;;8.20;99.90;;;;;;6212566;23;20459;-74
2022/04/23 03:28:41;;;;;;;34.23;31.13;;;8.40;99.90;;;;;;6212491;23;20623;-73
2022/04/23 03:31:09;;;;;;;33.63;30.53;;;8.40;99.90;;;;;;6212680;23;20432;-73
2022/04/23 03:33:36;;;;;;;34.93;31.83;;;8.40;99.90;;;;;;6212444;23;20965;-74
2022/04/23 03:36:02;;;;;;;35.23;32.03;;;8.20;99.90;;;;;;6212794;23;20436;-74
2022/04/23 03:38:29;;;;;;;35.37;32.37;;;8.20;99.90;;;;;;6213842;23;20409;-74
2022/04/23 03:40:56;;;;;;;34.27;31.00;;;8.30;99.90;;;;;;6213088;23;20423;-74
2022/04/23 03:43:24;;;;;;;34.27;31.17;;;8.40;99.90;;;;;;6213061;23;20449;-74
2022/04/23 03:45:52;;;;;;;34.03;31.07;;;8.40;99.90;;;;;;6212575;23;20459;-74
2022/04/23 03:48:19;;;;;;;36.23;32.93;;;8.30;99.90;;;;;;6212970;23;20447;-74
2022/04/23 03:50:47;;;;;;;34.20;31.10;;;8.30;99.90;;;;;;6213049;23;20416;-74
2022/04/23 03:53:14;;;;;;;33.97;31.07;;;8.30;99.90;;;;;;6212668;23;20983;-74
2022/04/23 03:55:40;;;;;;;32.00;28.90;;;8.20;99.90;;;;;;6213071;23;20435;-73
2022/04/23 03:58:08;;;;;;;33.87;30.87;;;8.20;99.90;;;;;;6213007;23;20840;-76
2022/04/23 04:00:35;;;;;;;33.40;30.30;;;8.30;99.90;;;;;;6212943;23;20970;-76
2022/04/23 04:03:03;;;;;;;33.30;30.23;;;8.40;99.90;;;;;;6210262;23;20452;-73
2022/04/23 04:05:31;;;;;;;33.17;30.27;;;8.30;99.90;;;;;;6214687;23;20459;-74
2022/04/23 04:07:58;;;;;;;32.13;29.23;;;8.30;99.90;;;;;;6214178;23;20499;-76
2022/04/23 04:10:25;;;;;;;32.33;29.43;;;8.20;99.90;;;;;;6212080;23;20416;-75
2022/04/23 04:12:52;;;;;;;31.23;28.13;;;8.20;99.90;;;;;;6212376;23;20404;-76
2022/04/23 04:15:20;;;;;;;30.67;27.63;;;8.20;99.90;;;;;;6212404;23;20436;-75
2022/04/23 04:17:49;;;;;;;32.70;29.47;;;8.20;99.90;;;;;;6213165;23;20408;-76
2022/04/23 04:20:17;;;;;;;35.43;31.10;;;8.20;99.90;;;;;;6213106;23;20420;-76
2022/04/23 04:22:46;;;;;;;30.83;27.80;;;8.30;99.90;;;;;;6214130;23;20440;-76
2022/04/23 04:25:15;;;;;;;30.47;27.60;;;8.20;99.90;;;;;;6213158;23;20412;-76
2022/04/23 04:27:42;;;;;;;29.43;26.63;;;8.20;99.90;;;;;;6213103;23;20416;-76
2022/04/23 04:30:10;;;;;;;30.00;27.37;;;8.20;99.90;;;;;;6212114;23;20936;-75
2022/04/23 04:32:37;;;;;;;28.27;25.87;;;8.20;99.90;;;;;;6212752;23;20405;-77
2022/04/23 04:35:04;;;;;;;29.07;26.57;;;8.30;99.90;;;;;;6212384;23;20430;-76
2022/04/23 04:37:32;;;;;;;31.37;28.47;;;8.30;99.90;;;;;;6213237;23;20389;-75
2022/04/23 04:39:59;;;;;;;29.40;26.83;;;8.50;99.90;;;;;;6212979;23;20948;-74
2022/04/23 04:42:26;;;;;;;29.77;27.20;;;8.60;99.90;;;;;;6212530;23;20804;-73
2022/04/23 04:44:53;;;;;;;30.47;27.23;;;8.80;99.90;;;;;;6212235;23;20448;-75
2022/04/23 04:47:20;;;;;;;27.27;25.17;;;9.00;99.90;;;;;;6212146;23;20409;-75
2022/04/23 04:49:47;;;;;;;26.57;24.57;;;9.20;99.90;;;;;;6212135;23;20409;-75
2022/04/23 04:52:14;;;;;;;26.50;24.40;;;9.30;99.90;;;;;;6212379;23;20409;-75
2022/04/23 04:54:42;;;;;;;26.13;24.13;;;9.40;99.90;;;;;;6211779;23;20410;-73
2022/04/23 04:57:09;;;;;;;24.67;22.77;;;9.60;99.90;;;;;;6212230;23;20532;-74
2022/04/23 04:59:35;;;;;;;26.87;24.70;;;9.70;99.90;;;;;;6211736;23;20413;-75
2022/04/23 05:02:02;;;;;;;25.57;23.77;;;9.70;99.90;;;;;;6213111;23;20472;-74
2022/04/23 05:04:29;;;;;;;26.63;24.33;;;9.80;99.90;;;;;;6215361;23;20717;-75
2022/04/23 05:06:56;;;;;;;26.00;23.90;;;9.80;99.90;;;;;;6214125;23;20405;-73
2022/04/23 05:09:23;;;;;;;23.00;21.30;;;9.90;99.90;;;;;;6214852;23;20405;-74
2022/04/23 05:11:51;;;;;;;25.00;23.20;;;10.00;99.90;;;;;;6215179;23;20458;-75
2022/04/23 05:14:18;;;;;;;23.90;22.20;;;10.00;99.90;;;;;;6215013;23;20416;-75
2022/04/23 05:16:45;;;;;;;23.87;21.90;;;10.10;99.90;;;;;;6214946;23;20412;-75
2022/04/23 05:19:11;;;;;;;24.00;22.20;;;10.10;99.90;;;;;;6215031;23;20448;-74
2022/04/23 05:21:38;;;;;;;22.60;20.93;;;10.20;99.90;;;;;;6214812;23;20419;-74
2022/04/23 05:24:06;;;;;;;23.80;21.90;;;10.30;99.90;;;;;;6214726;23;20736;-75
2022/04/23 05:26:34;;;;;;;24.93;23.13;;;10.30;99.90;;;;;;6214818;23;20767;-76
2022/04/23 05:29:02;;;;;;;23.37;21.57;;;10.50;99.90;;;;;;6214789;23;20404;-74
2022/04/23 05:31:28;;;;;;;23.30;21.70;;;10.50;99.90;;;;;;6214938;23;20404;-75
2022/04/23 05:33:55;;;;;;;24.70;22.80;;;10.60;99.90;;;;;;6214463;23;20427;-76
2022/04/23 05:36:22;;;;;;;22.43;20.90;;;10.60;99.90;;;;;;6213694;23;20996;-76
2022/04/23 05:38:49;;;;;;;22.13;20.33;;;10.60;99.90;;;;;;6214485;23;20408;-74
2022/04/23 05:41:15;;;;;;;22.80;21.20;;;10.80;99.90;;;;;;6214413;23;20408;-75
2022/04/23 05:43:42;;;;;;;24.70;22.90;;;10.90;99.90;;;;;;6214104;23;20455;-75
2022/04/23 05:46:10;;;;;;;24.57;22.77;;;11.00;99.90;;;;;;6213982;23;20409;-74
2022/04/23 05:48:37;;;;;;;22.70;21.10;;;11.00;99.90;;;;;;6214327;23;20459;-75
2022/04/23 05:51:04;;;;;;;23.00;21.20;;;11.10;99.90;;;;;;6214765;23;20444;-75
2022/04/23 05:53:31;;;;;;;25.10;23.20;;;11.20;99.90;;;;;;6214718;23;20408;-73
2022/04/23 05:55:57;;;;;;;24.30;22.50;;;11.30;99.90;;;;;;6214232;23;20439;-75
2022/04/23 05:58:24;;;;;;;23.70;21.90;;;11.30;99.90;;;;;;6213737;23;20409;-75
2022/04/23 06:00:52;;;;;;;23.00;21.37;;;11.40;99.90;;;;;;6214203;23;20452;-76
2022/04/23 06:03:20;;;;;;;23.03;21.13;;;11.40;99.90;;;;;;6214328;23;20483;-74
2022/04/23 06:05:47;;;;;;;23.40;21.60;;;11.40;99.90;;;;;;6214421;23;20451;-75
2022/04/23 06:08:14;;;;;;;24.27;22.40;;;11.40;99.90;;;;;;6213373;23;20408;-75
2022/04/23 06:10:40;;;;;;;23.90;22.30;;;11.40;99.90;;;;;;6213663;23;20412;-75
2022/04/23 06:13:08;;;;;;;21.83;20.33;;;11.60;99.90;;;;;;6214355;23;20412;-75
2022/04/23 06:15:35;;;;;;;21.30;19.80;;;11.40;99.90;;;;;;6214137;23;20409;-75
2022/04/23 06:18:02;;;;;;;21.63;20.13;;;11.40;99.90;;;;;;6214272;23;20412;-75
2022/04/23 06:20:30;;;;;;;20.17;18.80;;;11.40;99.90;;;;;;6213955;23;20409;-73
2022/04/23 06:22:57;;;;;;;21.67;20.10;;;11.50;99.90;;;;;;6214307;23;20444;-75
2022/04/23 06:25:23;;;;;;;19.20;17.90;;;11.50;99.90;;;;;;6215247;23;20471;-75
2022/04/23 06:27:51;;;;;;;20.90;19.40;;;11.60;99.90;;;;;;6214777;23;20910;-74
2022/04/23 06:30:18;;;;;;;19.53;18.13;;;11.70;99.90;;;;;;6212531;23;20415;-75
2022/04/23 06:32:45;;;;;;;18.17;16.97;;;11.90;99.90;;;;;;6213648;23;20405;-76
2022/04/23 06:35:11;;;;;;;18.10;16.83;;;11.90;99.90;;;;;;6212607;23;20440;-75
2022/04/23 06:37:41;;;;;;;18.90;17.60;;;11.90;99.90;;;;;;6213937;23;20455;-75
2022/04/23 06:40:10;;;;;;;18.57;17.37;;;11.90;99.90;;;;;;6213155;23;20932;-75
2022/04/23 06:42:37;;;;;;;18.20;17.10;;;12.00;99.90;;;;;;6213611;23;20444;-75
2022/04/23 06:45:05;;;;;;;17.93;16.83;;;12.00;99.90;;;;;;6213459;23;20412;-75
2022/04/23 06:47:32;;;;;;;18.63;17.30;;;11.90;99.90;;;;;;6213971;23;20419;-76
2022/04/23 06:49:59;;;;;;;16.43;15.33;;;11.80;99.90;;;;;;6210759;23;20416;-76
2022/04/23 06:52:26;;;;;;;17.73;16.53;;;12.00;99.90;;;;;;6213410;23;20451;-75
2022/04/23 06:54:55;;;;;;;17.33;16.23;;;12.00;99.90;;;;;;6213265;23;20490;-75
2022/04/23 06:57:23;;;;;;;18.83;17.53;;;12.00;99.90;;;;;;6210496;23;20404;-75
2022/04/23 06:59:50;;;;;;;17.97;16.77;;;12.10;99.90;;;;;;6213646;23;20412;-76
2022/04/23 07:02:17;;;;;;;18.30;17.10;;;12.00;99.90;;;;;;6214094;23;20404;-75
2022/04/23 07:04:44;;;;;;;16.70;15.60;;;11.90;99.90;;;;;;6213849;23;20412;-75
2022/04/23 07:07:11;;;;;;;16.53;15.43;;;11.80;99.90;;;;;;6214103;23;20795;-75
2022/04/23 07:09:38;;;;;;;15.80;14.83;;;12.00;99.90;;;;;;6213403;23;20483;-74
2022/04/23 07:12:08;;;;;;;16.70;15.50;;;12.10;99.90;;;;;;6214072;23;20408;-74
2022/04/23 07:14:35;;;;;;;17.27;16.07;;;12.00;99.90;;;;;;6213723;23;20407;-75
2022/04/23 07:17:02;;;;;;;17.50;16.30;;;12.10;99.90;;;;;;6214145;23;20423;-75
2022/04/23 07:19:30;;;;;;;17.20;16.00;;;12.30;99.90;;;;;;6213651;23;20459;-75
2022/04/23 07:21:57;;;;;;;15.83;14.80;;;12.40;99.90;;;;;;6214111;23;20499;-75
2022/04/23 07:24:23;;;;;;;17.03;15.93;;;12.50;99.90;;;;;;6213256;23;20460;-75
2022/04/23 07:26:50;;;;;;;15.97;15.03;;;12.60;99.90;;;;;;6214307;23;20440;-75
2022/04/23 07:29:18;;;;;;;16.63;15.53;;;12.70;99.90;;;;;;6214171;23;20408;-75
2022/04/23 07:31:45;;;;;;;16.23;14.93;;;12.80;99.90;;;;;;6213676;23;20953;-75
2022/04/23 07:39:40;;;;;;;15.67;14.37;;;13.40;99.90;;;;;;6213399;23;20461;-75
2022/04/23 07:42:07;;;;;;;16.13;15.00;;;13.30;99.90;;;;;;6213902;23;20413;-74
2022/04/23 07:44:36;;;;;;;16.27;15.13;;;13.50;99.90;;;;;;6213193;23;20436;-75
2022/04/23 07:47:05;;;;;;;15.37;14.37;;;13.80;99.90;;;;;;6213341;23;20476;-75
2022/04/23 07:49:32;;;;;;;16.50;15.40;;;13.60;99.90;;;;;;6213606;23;20444;-76
2022/04/23 07:51:58;;;;;;;16.73;15.70;;;13.70;99.90;;;;;;6213838;23;20468;-75
2022/04/23 07:54:25;;;;;;;15.40;14.40;;;13.90;99.90;;;;;;6213611;23;20401;-75
2022/04/23 07:56:52;;;;;;;15.23;14.33;;;14.20;99.90;;;;;;6212838;23;20417;-73
2022/04/23 07:59:18;;;;;;;15.60;14.60;;;14.50;99.90;;;;;;6213412;23;20714;-73
2022/04/23 08:01:46;;;;;;;16.50;15.23;;;14.70;99.90;;;;;;6211301;23;20490;-73
2022/04/23 08:04:13;;;;;;;16.73;15.63;;;14.80;99.90;;;;;;6210109;23;20448;-73
2022/04/23 08:06:40;;;;;;;16.53;15.20;;;14.60;99.90;;;;;;6213107;23;20413;-73
2022/04/23 08:09:06;;;;;;;16.47;15.40;;;14.30;99.90;;;;;;6213094;23;20412;-74
2022/04/23 08:11:33;;;;;;;15.63;14.43;;;14.20;99.90;;;;;;6212913;23;20416;-74
2022/04/23 08:14:00;;;;;;;15.77;14.57;;;14.20;99.90;;;;;;6212952;23;20907;-75
2022/04/23 08:16:29;;;;;;;16.70;15.50;;;14.10;99.90;;;;;;6212604;23;20891;-75
2022/04/23 08:18:59;;;;;;;17.37;16.07;;;14.10;99.90;;;;;;6212908;23;20412;-75
2022/04/23 08:21:26;;;;;;;16.30;15.20;;;14.30;99.90;;;;;;6213191;23;20416;-72
2022/04/23 08:23:52;;;;;;;14.93;13.93;;;14.40;99.90;;;;;;6215680;23;20440;-73
2022/04/23 08:26:19;;;;;;;17.37;15.87;;;14.30;99.90;;;;;;6213245;23;21108;-73
2022/04/23 08:31:30;;;;;;;16.23;15.03;;;13.90;99.90;;;;;;6213244;23;20371;-74
2022/04/23 08:34:01;;;;;;;16.10;14.97;;;14.00;99.90;;;;;;6212633;23;20944;-74
2022/04/23 08:36:30;;;;;;;16.53;15.30;;;14.10;99.90;;;;;;6212491;23;20506;-74
2022/04/23 08:38:58;;;;;;;17.00;15.77;;;13.70;99.90;;;;;;6210831;23;20412;-74
2022/04/23 08:41:28;;;;;;;16.63;15.33;;;14.00;99.90;;;;;;6212536;23;20393;-74
2022/04/23 08:43:56;;;;;;;15.93;14.83;;;14.40;99.90;;;;;;6212322;23;20432;-73
2022/04/23 08:46:24;;;;;;;16.50;15.20;;;14.70;99.90;;;;;;6212599;23;20430;-74
2022/04/23 08:48:53;;;;;;;15.97;14.97;;;14.90;99.90;;;;;;6212773;23;20483;-73
2022/04/23 08:51:24;;;;;;;17.57;16.10;;;14.80;99.90;;;;;;6212753;23;20745;-75
2022/04/23 08:53:57;;;;;;;17.40;16.30;;;14.30;99.90;;;;;;6212651;23;20900;-75
2022/04/23 08:56:23;;;;;;;16.37;15.20;;;14.50;99.90;;;;;;6212834;23;20397;-76
2022/04/23 08:58:50;;;;;;;18.40;16.37;;;14.60;99.90;;;;;;6207475;23;20412;-74
2022/04/23 09:01:18;;;;;;;19.20;17.70;;;14.80;99.90;;;;;;6213139;23;20732;-75
2022/04/23 09:03:45;;;;;;;17.67;16.37;;;14.90;99.90;;;;;;6212799;23;20494;-75
2022/04/23 09:06:11;;;;;;;16.53;15.33;;;14.80;99.90;;;;;;6213199;23;20413;-74
2022/04/23 09:09:07;;;;;;;16.93;15.53;;;14.60;99.90;;;;;;6213049;23;20439;-74
2022/04/23 09:11:36;;;;;;;17.60;16.20;;;14.50;99.90;;;;;;6213288;23;20444;-73
2022/04/23 09:14:03;;;;;;;16.70;15.60;;;14.80;99.90;;;;;;6213488;23;20430;-75
2022/04/23 09:24:46;;;;;;;17.50;16.30;;;14.50;99.90;;;;;;6151758;23;20542;-76
2022/04/23 09:27:13;;;;;;;17.67;16.47;;;15.00;99.90;;;;;;6213305;23;20463;-76
2022/04/23 09:29:40;;;;;;;14.83;13.83;;;14.80;99.90;;;;;;6212767;23;20413;-75
2022/04/23 09:32:12;;;;;;;17.43;16.23;;;15.00;99.90;;;;;;6212752;23;20455;-75
2022/04/23 09:34:39;;;;;;;16.97;15.60;;;15.10;99.90;;;;;;6212980;23;20424;-75
2022/04/23 09:37:08;;;;;;;16.40;15.10;;;15.10;99.90;;;;;;6212539;23;20819;-74
2022/04/23 09:39:38;;;;;;;15.60;14.50;;;15.00;99.90;;;;;;6212643;23;20916;-75
2022/04/23 09:42:17;;;;;;;16.33;15.10;;;15.10;99.90;;;;;;6212927;23;20419;-76
2022/04/23 09:44:44;;;;;;;15.27;14.03;;;14.80;99.90;;;;;;6213086;23;20451;-75
2022/04/23 09:47:11;;;;;;;16.37;15.23;;;14.80;99.90;;;;;;6213073;23;20896;-75
2022/04/23 09:49:40;;;;;;;15.73;14.63;;;15.00;99.90;;;;;;6214532;23;20409;-75
2022/04/23 09:52:08;;;;;;;15.97;14.87;;;15.30;99.90;;;;;;6215037;23;20421;-76
2022/04/23 09:54:36;;;;;;;14.10;13.30;;;15.60;99.90;;;;;;6214293;23;20412;-74
2022/04/23 09:57:03;;;;;;;14.87;13.60;;;15.60;99.90;;;;;;6214840;23;20407;-75
2022/04/23 09:59:32;;;;;;;14.40;13.30;;;15.50;99.90;;;;;;6214594;23;20900;-76
2022/04/23 10:01:59;;;;;;;14.83;13.93;;;15.50;99.90;;;;;;6215010;23;20401;-76
2022/04/23 10:04:27;;;;;;;13.83;12.93;;;15.60;99.90;;;;;;6214417;23;20440;-75
2022/04/23 10:06:54;;;;;;;15.23;14.13;;;16.00;99.90;;;;;;6214341;23;20943;-75
2022/04/23 10:09:22;;;;;;;14.10;13.30;;;16.40;99.90;;;;;;6214200;23;20412;-75
2022/04/23 10:11:51;;;;;;;13.83;13.03;;;16.40;99.80;;;;;;6214938;23;20417;-75
2022/04/23 10:14:22;;;;;;;13.57;12.67;;;15.90;99.90;;;;;;6215033;23;20436;-76
2022/04/23 10:16:53;;;;;;;13.97;13.07;;;15.60;99.90;;;;;;6214034;23;20432;-76
2022/04/23 10:19:21;;;;;;;13.60;12.80;;;15.60;99.90;;;;;;6214763;23;20399;-75
2022/04/23 10:21:53;;;;;;;13.07;12.27;;;15.60;99.90;;;;;;6214615;23;20459;-76
2022/04/23 10:24:27;;;;;;;12.80;12.00;;;15.50;99.90;;;;;;6214621;23;20429;-76
2022/04/23 10:26:58;;;;;;;12.47;11.70;;;15.50;99.90;;;;;;6214347;23;20404;-76
2022/04/23 10:29:27;;;;;;;14.20;13.20;;;15.50;99.90;;;;;;6214524;23;20401;-76
2022/04/23 10:32:24;;;;;;;13.00;12.20;;;15.50;99.90;;;;;;6214516;23;20408;-75
2022/04/23 10:34:51;;;;;;;14.33;13.53;;;15.60;99.90;;;;;;6210489;23;20429;-74
2022/04/23 10:37:19;;;;;;;12.17;11.47;;;16.10;99.90;;;;;;6184187;23;20405;-73
2022/04/23 10:40:06;;;;;;;14.30;13.33;;;16.60;99.90;;;;;;6184534;23;20409;-74
2022/04/23 10:42:34;;;;;;;13.60;12.80;;;17.10;99.20;;;;;;6184030;23;20409;-73
2022/04/23 10:45:05;;;;;;;14.60;13.80;;;17.10;97.90;;;;;;6184567;23;20532;-74
2022/04/23 10:47:34;;;;;;;14.80;13.77;;;17.00;97.90;;;;;;6184667;23;20408;-75
2022/04/23 10:50:34;;;;;;;14.20;13.30;;;16.70;98.10;;;;;;6183725;23;20472;-75
2022/04/23 10:53:03;;;;;;;14.47;13.57;;;16.20;98.70;;;;;;6179398;23;20544;-74
2022/04/23 10:55:31;;;;;;;13.80;12.97;;;16.00;99.40;;;;;;6184525;23;20406;-75
2022/04/23 10:58:22;;;;;;;13.73;12.97;;;15.90;99.90;;;;;;6183590;23;20424;-75
2022/04/23 11:00:48;;;;;;;15.10;14.17;;;16.10;99.70;;;;;;6183893;23;20414;-76
2022/04/23 11:03:16;;;;;;;16.17;15.07;;;16.40;99.20;;;;;;6184113;23;20414;-76
2022/04/23 11:14:45;;;;;;;15.37;14.10;;;16.30;99.40;;;;;;6184211;23;20377;-76
2022/04/23 11:17:12;;;;;;;15.90;14.90;;;15.70;99.90;;;;;;6184413;23;20849;-76
2022/04/23 11:19:41;;;;;;;15.60;14.33;;;15.70;99.90;;;;;;6184398;23;20410;-76
2022/04/23 11:22:09;;;;;;;14.53;13.40;;;15.70;99.90;;;;;;6184308;23;20416;-76
2022/04/23 11:24:36;;;;;;;15.03;14.03;;;15.80;99.90;;;;;;6183831;23;21055;-75
2022/04/23 11:27:03;;;;;;;15.10;14.10;;;15.80;99.90;;;;;;6184408;23;20464;-76
2022/04/23 11:29:30;;;;;;;17.20;15.80;;;15.90;99.90;;;;;;6184139;23;20409;-75
2022/04/23 11:31:57;;;;;;;15.37;14.27;;;15.90;99.90;;;;;;6183802;23;20432;-75
2022/04/23 11:34:24;;;;;;;16.10;14.90;;;15.80;99.90;;;;;;6183409;23;20434;-75
2022/04/23 11:36:52;;;;;;;15.50;14.50;;;15.80;99.90;;;;;;6207791;23;20436;-75
2022/04/23 11:39:19;;;;;;;17.00;15.90;;;16.20;99.90;;;;;;6213491;23;20918;-76
2022/04/23 11:41:51;;;;;;;15.13;14.17;;;16.30;99.90;;;;;;6213985;23;20416;-75
2022/04/23 11:44:20;;;;;;;15.43;14.50;;;16.40;99.90;;;;;;6213802;23;20479;-76
2022/04/23 11:46:48;;;;;;;15.63;14.60;;;16.60;99.50;;;;;;6212802;23;20782;-76
2022/04/23 11:49:26;;;;;;;15.93;14.83;;;16.40;99.40;;;;;;6213692;23;20423;-76
2022/04/23 11:52:02;;;;;;;15.07;14.17;;;16.60;99.30;;;;;;6213487;23;20413;-76
2022/04/23 11:54:33;;;;;;;14.80;13.90;;;17.00;99.00;;;;;;6213336;23;20381;-76
2022/04/23 11:57:00;;;;;;;16.03;14.93;;;17.10;98.30;;;;;;6213691;23;20405;-76
2022/04/23 11:59:35;;;;;;;15.33;14.43;;;17.40;98.20;;;;;;6213224;23;20416;-76
2022/04/23 12:02:03;;;;;;;16.47;15.37;;;17.40;97.90;;;;;;6214124;23;20404;-76
2022/04/23 12:04:41;;;;;;;14.73;13.93;;;17.40;97.80;;;;;;6213926;23;20812;-76
2022/04/23 12:07:10;;;;;;;16.90;15.80;;;16.90;98.00;;;;;;6213747;23;20447;-76
2022/04/23 12:09:45;;;;;;;16.73;15.73;;;16.90;98.50;;;;;;6212705;23;20928;-76
2022/04/23 12:12:15;;;;;;;15.50;14.60;;;16.80;98.20;;;;;;6213759;23;20400;-76
2022/04/23 12:14:45;;;;;;;16.40;15.23;;;16.90;98.50;;;;;;6213076;23;20412;-76
2022/04/23 12:17:20;;;;;;;16.50;15.50;;;17.20;98.20;;;;;;6213361;23;20495;-76
2022/04/23 12:19:48;;;;;;;17.10;16.00;;;17.20;98.00;;;;;;6213642;23;20447;-76
2022/04/23 12:22:27;;;;;;;16.00;15.10;;;17.40;98.10;;;;;;6213292;23;20494;-76
2022/04/23 12:25:08;;;;;;;16.00;14.77;;;17.70;97.20;;;;;;6213222;23;20435;-76
2022/04/23 12:27:56;;;;;;;16.93;15.63;;;17.70;97.10;;;;;;6213671;23;20416;-76
2022/04/23 12:41:39;;;;;;;15.93;14.83;;;17.40;97.00;;;;;;6212703;23;20463;-74
2022/04/23 12:44:20;;;;;;;16.57;15.53;;;17.50;97.50;;;;;;6213050;23;20405;-75
2022/04/23 12:46:57;;;;;;;15.07;14.00;;;17.50;96.90;;;;;;6213263;23;20405;-74
2022/04/23 12:49:25;;;;;;;15.57;14.47;;;17.70;96.80;;;;;;6213069;23;20409;-74
2022/04/23 12:51:53;;;;;;;15.27;14.37;;;17.80;96.30;;;;;;6211775;23;20416;-75
2022/04/23 12:54:22;;;;;;;15.23;14.23;;;18.10;96.40;;;;;;6213123;23;20405;-75
2022/04/23 12:56:49;;;;;;;15.70;14.80;;;18.40;96.20;;;;;;6213355;23;20440;-74
2022/04/23 12:59:16;;;;;;;16.50;15.50;;;18.30;95.30;;;;;;6212976;23;20942;-75
2022/04/23 13:01:43;;;;;;;15.57;14.50;;;18.10;95.80;;;;;;6213306;23;20416;-75
2022/04/23 13:04:11;;;;;;;16.73;15.53;;;17.60;96.80;;;;;;6213028;23;20417;-75
2022/04/23 13:09:24;;;;;;;16.40;15.33;;;17.30;97.00;;;;;;6213156;23;20389;-75
2022/04/23 13:11:51;;;;;;;16.63;15.53;;;16.80;97.90;;;;;;6213335;23;20413;-76
2022/04/23 13:14:18;;;;;;;16.03;14.93;;;17.00;97.90;;;;;;6212796;23;20412;-76
2022/04/23 13:16:45;;;;;;;16.57;15.53;;;16.90;98.10;;;;;;6213387;23;20404;-76
2022/04/23 13:19:11;;;;;;;17.57;16.40;;;17.00;98.00;;;;;;6212856;23;20405;-76
2022/04/23 13:21:38;;;;;;;16.67;15.67;;;17.10;98.00;;;;;;6213083;23;20405;-76
2022/04/23 13:24:06;;;;;;;17.40;16.30;;;16.90;98.30;;;;;;6215136;23;20459;-76
2022/04/23 13:26:34;;;;;;;15.90;14.80;;;16.90;98.70;;;;;;6215018;23;20912;-76
2022/04/23 13:29:01;;;;;;;16.37;15.27;;;17.00;99.30;;;;;;6215163;23;20428;-76
2022/04/23 13:31:27;;;;;;;18.53;17.13;;;16.70;99.90;;;;;;6214841;23;20967;-75
2022/04/23 13:33:54;;;;;;;17.83;16.53;;;16.30;99.90;;;;;;6214599;23;20936;-75
2022/04/23 13:36:21;;;;;;;17.07;15.87;;;16.10;99.90;;;;;;6214330;23;20440;-75
2022/04/23 13:38:48;;;;;;;16.93;15.93;;;15.90;99.90;;;;;;6214739;23;20413;-76
2022/04/23 13:41:17;;;;;;;17.00;15.70;;;15.90;99.90;;;;;;6215104;23;20409;-75
2022/04/23 13:43:46;;;;;;;17.60;16.37;;;16.00;99.90;;;;;;6215023;23;20420;-76
2022/04/23 13:46:13;;;;;;;16.80;15.80;;;16.20;99.90;;;;;;6214956;23;20491;-75
2022/04/23 13:48:40;;;;;;;17.67;16.30;;;16.50;99.90;;;;;;6215131;23;20417;-75
2022/04/23 13:51:07;;;;;;;16.60;15.60;;;17.00;99.90;;;;;;6212266;23;20467;-75
2022/04/23 13:53:34;;;;;;;17.50;16.20;;;17.50;99.00;;;;;;6215253;23;20405;-76
2022/04/23 13:56:01;;;;;;;16.60;15.50;;;17.70;98.50;;;;;;6215027;23;20412;-75
2022/04/23 13:58:28;;;;;;;19.03;17.80;;;18.10;97.50;;;;;;6214955;23;20423;-75
2022/04/23 14:00:56;;;;;;;18.87;17.67;;;18.20;97.20;;;;;;6214579;23;20408;-74
2022/04/23 14:11:35;;;;;;;18.83;17.53;;;17.70;97.40;;;;;;6214102;23;20504;-74
2022/04/23 14:14:02;;;;;;;16.80;15.70;;;18.00;97.50;;;;;;6214160;23;20409;-75
2022/04/23 14:16:30;;;;;;;17.73;16.67;;;18.60;96.70;;;;;;6214321;23;20705;-75
2022/04/23 14:18:57;;;;;;;17.70;16.53;;;18.80;95.80;;;;;;6213645;23;20413;-75
2022/04/23 14:21:24;;;;;;;17.43;16.33;;;18.60;95.70;;;;;;6213836;23;20515;-75
2022/04/23 14:23:50;;;;;;;18.50;17.40;;;18.30;96.30;;;;;;6214161;23;20484;-75
2022/04/23 14:26:17;;;;;;;20.67;19.07;;;17.90;96.50;;;;;;6213552;23;20444;-75
2022/04/23 14:28:44;;;;;;;17.90;16.50;;;17.50;97.30;;;;;;6214398;23;20440;-75
2022/04/23 14:31:11;;;;;;;17.23;16.03;;;17.20;98.20;;;;;;6214289;23;20475;-75
2022/04/23 14:33:39;;;;;;;18.17;17.03;;;17.20;98.10;;;;;;6213393;23;20866;-75
2022/04/23 14:36:06;;;;;;;19.40;18.07;;;16.90;98.50;;;;;;6213664;23;20814;-74
2022/04/23 14:38:33;;;;;;;18.77;17.67;;;16.80;99.20;;;;;;6214452;23;20417;-75
2022/04/23 14:41:00;;;;;;;19.77;18.50;;;16.80;98.90;;;;;;6214125;23;20413;-75
2022/04/23 14:43:28;;;;;;;18.30;17.03;;;16.60;99.30;;;;;;6213259;23;20959;-75
2022/04/23 14:45:55;;;;;;;19.03;17.73;;;16.40;99.90;;;;;;6213471;23;20455;-75
2022/04/23 14:48:22;;;;;;;19.57;18.27;;;16.30;99.90;;;;;;6211853;23;20432;-76
2022/04/23 14:53:34;;;;;;;20.80;19.03;;;16.50;99.90;;;;;;6213423;23;20380;-76
2022/04/23 14:56:01;;;;;;;19.23;18.03;;;16.40;99.90;;;;;;6212865;23;20413;-75
2022/04/23 14:58:28;;;;;;;20.70;19.20;;;16.40;99.90;;;;;;6213865;23;20413;-75
2022/04/23 15:00:55;;;;;;;20.77;19.33;;;16.40;99.90;;;;;;6213724;23;20409;-75
2022/04/23 15:03:22;;;;;;;20.97;19.67;;;16.30;99.90;;;;;;6214201;23;20405;-76
2022/04/23 15:05:50;;;;;;;19.37;17.97;;;16.30;99.90;;;;;;6213826;23;20447;-75
2022/04/23 15:08:17;;;;;;;22.17;20.67;;;16.40;99.90;;;;;;6213824;23;20420;-75
2022/04/23 15:10:44;;;;;;;18.80;17.57;;;16.50;99.90;;;;;;6213709;23;20459;-75
2022/04/23 15:13:11;;;;;;;21.93;20.40;;;16.60;99.90;;;;;;6213462;23;20416;-76
2022/04/23 15:15:38;;;;;;;20.90;19.40;;;16.60;99.90;;;;;;6213650;23;20459;-75
2022/04/23 15:18:05;;;;;;;19.77;18.27;;;16.60;99.90;;;;;;6213493;23;20420;-75
2022/04/23 15:20:32;;;;;;;20.37;18.77;;;16.60;99.90;;;;;;6213880;23;20413;-75
2022/04/23 15:23:00;;;;;;;19.40;17.97;;;16.60;99.90;;;;;;6211699;23;20412;-76
2022/04/23 15:25:27;;;;;;;21.63;19.83;;;16.60;99.90;;;;;;6213307;23;20444;-74
2022/04/23 15:27:55;;;;;;;19.13;17.73;;;16.60;99.90;;;;;;6213299;23;20412;-75
2022/04/23 15:30:26;;;;;;;22.63;20.63;;;16.60;99.90;;;;;;6213374;23;20412;-75
2022/04/23 15:32:57;;;;;;;20.57;18.97;;;16.60;99.90;;;;;;6213291;23;20416;-75
2022/04/23 15:35:24;;;;;;;19.27;17.77;;;16.60;99.90;;;;;;6212880;23;20448;-75
2022/04/23 15:37:52;;;;;;;20.23;18.73;;;16.60;99.90;;;;;;6213508;23;20421;-75
2022/04/23 15:40:21;;;;;;;19.60;18.10;;;16.60;99.90;;;;;;6213486;23;20416;-75
2022/04/23 15:42:48;;;;;;;19.80;18.13;;;16.70;99.90;;;;;;6213075;23;20412;-79
2022/04/23 15:45:14;;;;;;;20.10;18.40;;;16.60;99.90;;;;;;6213616;23;20490;-75
2022/04/23 15:47:41;;;;;;;20.93;19.33;;;16.60;99.90;;;;;;6210904;23;20744;-75
2022/04/23 15:50:09;;;;;;;20.93;19.27;;;16.60;99.90;;;;;;6210435;23;20900;-75
2022/04/23 15:52:35;;;;;;;20.70;19.20;;;16.60;99.90;;;;;;6213090;23;20409;-75
2022/04/23 15:55:03;;;;;;;20.07;18.53;;;16.70;99.90;;;;;;6213108;23;20408;-75
2022/04/23 15:57:32;;;;;;;20.97;19.47;;;16.90;99.90;;;;;;6213317;23;20405;-75
2022/04/23 15:59:59;;;;;;;20.63;19.13;;;17.00;99.80;;;;;;6213294;23;20487;-75